createdAt,value
2019-01-20T00:00:10.858Z,3.90
2019-01-20T00:02:36.953Z,3.77
2019-01-20T00:05:07.219Z,3.53
2019-01-20T00:07:33.351Z,3.40
2019-01-20T00:09:59.451Z,3.37
2019-01-20T00:12:25.691Z,3.93
2019-01-20T00:14:51.780Z,2.80
2019-01-20T00:17:17.939Z,2.90
2019-01-20T00:19:44.042Z,2.87
2019-01-20T00:22:10.190Z,2.90
2019-01-20T00:24:36.442Z,3.27
2019-01-20T00:27:02.666Z,3.27
2019-01-20T00:29:28.784Z,2.80
2019-01-20T00:31:55.344Z,2.80
2019-01-20T00:34:21.522Z,3.17
2019-01-20T00:36:47.878Z,2.90
2019-01-20T00:39:14.000Z,2.77
2019-01-20T00:41:40.616Z,2.57
2019-01-20T00:44:06.747Z,2.70
2019-01-20T00:46:32.870Z,3.30
2019-01-20T00:48:59.044Z,2.63
2019-01-20T00:51:25.878Z,2.10
2019-01-20T00:53:52.008Z,2.70
2019-01-20T00:56:18.114Z,2.67
2019-01-20T00:58:44.308Z,3.27
2019-01-20T01:01:10.709Z,2.80
2019-01-20T01:03:36.852Z,2.67
2019-01-20T01:06:02.943Z,2.80
2019-01-20T01:08:29.087Z,2.83
2019-01-20T01:10:55.312Z,2.93
2019-01-20T01:13:21.424Z,2.70
2019-01-20T01:15:47.596Z,2.97
2019-01-20T01:18:13.783Z,3.40
2019-01-20T01:20:39.912Z,2.73
2019-01-20T01:23:06.083Z,2.90
2019-01-20T01:25:32.187Z,2.97
2019-01-20T01:27:58.378Z,3.13
2019-01-20T01:30:24.611Z,2.37
2019-01-20T01:32:51.889Z,3.27
2019-01-20T01:35:18.092Z,2.57
2019-01-20T01:37:44.259Z,3.03
2019-01-20T01:40:12.904Z,2.67
2019-01-20T01:42:39.005Z,3.23
2019-01-20T01:45:08.724Z,2.57
2019-01-20T01:47:34.830Z,2.60
2019-01-20T01:50:00.964Z,3.00
2019-01-20T01:52:27.050Z,2.93
2019-01-20T01:54:53.199Z,2.83
2019-01-20T01:57:19.333Z,2.60
2019-01-20T01:59:45.493Z,2.77
2019-01-20T02:02:11.714Z,2.47
2019-01-20T02:04:37.818Z,2.63
2019-01-20T02:07:04.344Z,2.30
2019-01-20T02:09:30.470Z,2.27
2019-01-20T02:11:56.662Z,2.53
2019-01-20T02:14:22.767Z,2.13
2019-01-20T02:16:48.883Z,2.53
2019-01-20T02:19:14.993Z,2.30
2019-01-20T02:21:41.226Z,2.13
2019-01-20T02:24:07.341Z,1.83
2019-01-20T02:26:33.456Z,2.20
2019-01-20T02:28:59.554Z,2.47
2019-01-20T02:31:25.686Z,1.83
2019-01-20T02:33:52.107Z,1.87
2019-01-20T02:36:18.247Z,2.13
2019-01-20T02:38:44.343Z,2.27
2019-01-20T02:41:10.481Z,2.30
2019-01-20T02:43:36.629Z,2.53
2019-01-20T02:46:02.748Z,2.37
2019-01-20T02:48:28.841Z,1.70
2019-01-20T02:50:54.951Z,2.07
2019-01-20T02:53:21.392Z,2.10
2019-01-20T02:55:47.636Z,1.90
2019-01-20T02:58:13.835Z,2.33
2019-01-20T03:00:39.959Z,1.87
2019-01-20T03:03:06.446Z,2.00
2019-01-20T03:05:32.562Z,1.67
2019-01-20T03:07:58.677Z,1.97
2019-01-20T03:10:24.770Z,1.40
2019-01-20T03:12:50.893Z,1.80
2019-01-20T03:15:17.100Z,1.60
2019-01-20T03:17:43.249Z,1.50
2019-01-20T03:20:15.321Z,1.90
2019-01-20T03:22:41.443Z,2.17
2019-01-20T03:25:10.539Z,1.73
2019-01-20T03:27:36.660Z,1.77
2019-01-20T03:30:09.321Z,1.80
2019-01-20T03:32:35.440Z,1.77
2019-01-20T03:35:01.523Z,1.90
2019-01-20T03:37:27.651Z,1.53
2019-01-20T03:39:53.738Z,1.80
2019-01-20T03:42:19.831Z,1.77
2019-01-20T03:44:45.950Z,1.63
2019-01-20T03:47:12.058Z,1.63
2019-01-20T03:49:38.160Z,1.70
2019-01-20T03:52:04.252Z,1.40
2019-01-20T03:54:30.363Z,1.77
2019-01-20T03:56:56.450Z,1.47
2019-01-20T03:59:22.605Z,1.60
2019-01-20T04:01:48.715Z,1.63
2019-01-20T04:04:14.819Z,1.33
2019-01-20T04:06:40.908Z,1.73
2019-01-20T04:09:07.136Z,1.60
2019-01-20T04:11:33.217Z,1.40
2019-01-20T04:13:59.330Z,1.67
2019-01-20T04:16:25.435Z,1.53
2019-01-20T04:18:51.555Z,1.90
2019-01-20T04:21:17.651Z,1.97
2019-01-20T04:23:43.771Z,2.20
2019-01-20T04:26:09.868Z,1.90
2019-01-20T04:28:35.960Z,2.10
2019-01-20T04:31:02.124Z,1.47
2019-01-20T04:33:28.327Z,1.63
2019-01-20T04:35:54.431Z,2.17
2019-01-20T04:38:20.535Z,1.77
2019-01-20T04:40:46.644Z,2.10
2019-01-20T04:43:12.732Z,1.93
2019-01-20T04:45:38.844Z,2.03
2019-01-20T04:48:04.933Z,2.27
2019-01-20T04:50:31.160Z,2.70
2019-01-20T04:52:57.283Z,1.77
2019-01-20T04:55:23.410Z,2.33
2019-01-20T04:57:51.399Z,2.63
2019-01-20T05:00:20.172Z,2.37
2019-01-20T05:02:46.264Z,2.33
2019-01-20T05:05:12.362Z,2.03
2019-01-20T05:07:38.518Z,2.23
2019-01-20T05:10:10.689Z,1.70
2019-01-20T05:12:37.878Z,2.70
2019-01-20T05:15:08.037Z,2.07
2019-01-20T05:17:34.180Z,2.10
2019-01-20T05:20:00.288Z,1.70
2019-01-20T05:22:26.496Z,2.63
2019-01-20T05:24:52.576Z,2.23
2019-01-20T05:27:18.691Z,2.40
2019-01-20T05:29:44.809Z,1.77
2019-01-20T05:32:10.935Z,2.00
2019-01-20T05:34:37.056Z,2.23
2019-01-20T05:37:03.173Z,2.47
2019-01-20T05:39:29.262Z,1.73
2019-01-20T05:41:55.375Z,2.03
2019-01-20T05:44:21.472Z,1.90
2019-01-20T05:46:47.567Z,2.20
2019-01-20T05:49:13.699Z,2.60
2019-01-20T05:51:39.795Z,1.80
2019-01-20T05:54:05.917Z,2.40
2019-01-20T05:56:32.019Z,1.73
2019-01-20T05:58:58.124Z,2.40
2019-01-20T06:01:24.234Z,1.57
2019-01-20T06:03:50.348Z,1.73
2019-01-20T06:06:16.431Z,2.23
2019-01-20T06:08:42.544Z,2.47
2019-01-20T06:11:08.630Z,1.77
2019-01-20T06:13:34.758Z,2.13
2019-01-20T06:16:00.891Z,1.73
2019-01-20T06:18:27.030Z,2.17
2019-01-20T06:20:53.138Z,1.83
2019-01-20T06:23:19.241Z,1.80
2019-01-20T06:25:45.360Z,2.10
2019-01-20T06:28:11.481Z,2.20
2019-01-20T06:30:37.603Z,2.03
2019-01-20T06:33:03.712Z,2.00
2019-01-20T06:35:29.811Z,1.87
2019-01-20T06:37:55.907Z,2.23
2019-01-20T06:40:22.318Z,2.00
2019-01-20T06:42:48.410Z,1.63
2019-01-20T06:45:14.540Z,2.17
2019-01-20T06:47:40.640Z,1.90
2019-01-20T06:50:10.474Z,2.33
2019-01-20T06:52:36.550Z,2.13
2019-01-20T06:55:04.275Z,2.03
2019-01-20T06:57:30.400Z,2.83
2019-01-20T06:59:56.552Z,2.03
2019-01-20T07:02:22.663Z,1.83
2019-01-20T07:04:48.788Z,1.53
2019-01-20T07:07:14.912Z,2.40
2019-01-20T07:09:41.011Z,2.10
2019-01-20T07:12:07.144Z,2.37
2019-01-20T07:14:33.263Z,2.30
2019-01-20T07:16:59.350Z,2.57
2019-01-20T07:19:25.455Z,1.97
2019-01-20T07:21:51.581Z,2.07
2019-01-20T07:24:17.682Z,2.37
2019-01-20T07:26:43.816Z,2.20
2019-01-20T07:29:09.913Z,1.90
2019-01-20T07:31:36.036Z,2.13
2019-01-20T07:34:02.252Z,2.30
2019-01-20T07:36:28.383Z,1.70
2019-01-20T07:38:54.484Z,2.40
2019-01-20T07:41:20.591Z,2.73
2019-01-20T07:43:46.722Z,2.40
2019-01-20T07:46:12.830Z,2.13
2019-01-20T07:48:38.951Z,1.83
2019-01-20T07:51:05.059Z,2.27
2019-01-20T07:53:31.185Z,2.50
2019-01-20T07:55:57.673Z,2.07
2019-01-20T07:58:23.774Z,1.93
2019-01-20T08:00:49.933Z,2.10
2019-01-20T08:03:16.015Z,2.33
2019-01-20T08:05:42.147Z,2.00
2019-01-20T08:08:08.302Z,2.10
2019-01-20T08:10:34.728Z,2.23
2019-01-20T08:13:01.757Z,2.70
2019-01-20T08:15:27.943Z,2.70
2019-01-20T08:17:54.080Z,2.30
2019-01-20T08:20:22.443Z,2.33
2019-01-20T08:22:48.603Z,2.77
2019-01-20T08:25:16.620Z,2.27
2019-01-20T08:27:42.818Z,2.33
2019-01-20T08:30:12.184Z,3.27
2019-01-20T08:32:38.282Z,3.37
2019-01-20T08:35:05.802Z,3.40
2019-01-20T08:37:31.951Z,4.10
2019-01-20T08:39:58.071Z,3.77
2019-01-20T08:42:24.159Z,4.33
2019-01-20T08:44:50.313Z,5.20
2019-01-20T08:47:17.519Z,4.90
2019-01-20T08:49:43.682Z,3.53
2019-01-20T08:52:09.881Z,4.07
2019-01-20T08:54:36.009Z,4.77
2019-01-20T08:57:02.195Z,4.93
2019-01-20T08:59:28.464Z,5.43
2019-01-20T09:01:54.583Z,5.67
2019-01-20T09:04:20.843Z,6.13
2019-01-20T09:06:47.002Z,6.17
2019-01-20T09:09:13.134Z,5.20
2019-01-20T09:11:39.242Z,5.30
2019-01-20T09:14:05.515Z,4.63
2019-01-20T09:16:31.632Z,5.87
2019-01-20T09:18:57.740Z,4.23
2019-01-20T09:21:23.891Z,5.77
2019-01-20T09:23:49.976Z,4.23
2019-01-20T09:26:16.102Z,5.13
2019-01-20T09:28:42.202Z,4.70
2019-01-20T09:31:08.331Z,5.20
2019-01-20T09:33:34.462Z,5.23
2019-01-20T09:36:00.595Z,4.60
2019-01-20T09:38:26.711Z,5.10
2019-01-20T09:40:52.835Z,5.50
2019-01-20T09:43:18.934Z,5.47
2019-01-20T09:45:45.628Z,4.60
2019-01-20T09:48:11.832Z,5.90
2019-01-20T09:50:37.920Z,4.87
2019-01-20T09:53:04.071Z,4.60
2019-01-20T09:55:30.162Z,5.10
2019-01-20T09:57:56.290Z,5.50
2019-01-20T10:00:25.833Z,6.03
2019-01-20T10:02:52.063Z,6.10
2019-01-20T10:05:18.161Z,5.60
2019-01-20T10:07:44.316Z,6.83
2019-01-20T10:10:14.249Z,6.53
2019-01-20T10:12:40.379Z,5.93
2019-01-20T10:15:14.941Z,6.90
2019-01-20T10:17:41.058Z,7.90
2019-01-20T10:20:11.080Z,7.10
2019-01-20T10:22:37.251Z,7.40
2019-01-20T10:25:04.751Z,7.30
2019-01-20T10:27:31.411Z,7.40
2019-01-20T10:29:57.538Z,7.27
2019-01-20T10:32:23.724Z,7.28
2019-01-20T10:34:51.100Z,7.90
2019-01-20T10:37:17.306Z,7.47
2019-01-20T10:39:43.431Z,8.88
2019-01-20T10:42:09.582Z,7.47
2019-01-20T10:44:35.703Z,8.00
2019-01-20T10:47:01.812Z,7.55
2019-01-20T10:49:27.948Z,7.40
2019-01-20T10:51:54.044Z,7.55
2019-01-20T10:54:20.215Z,7.87
2019-01-20T10:56:46.331Z,7.70
2019-01-20T10:59:12.458Z,7.60
2019-01-20T11:01:38.585Z,7.65
2019-01-20T11:04:04.803Z,7.35
2019-01-20T11:06:30.919Z,7.05
2019-01-20T11:08:57.027Z,7.58
2019-01-20T11:11:23.168Z,7.53
2019-01-20T11:13:49.277Z,8.03
2019-01-20T11:16:15.435Z,7.42
2019-01-20T11:18:41.545Z,8.05
2019-01-20T11:21:07.703Z,7.72
2019-01-20T11:23:34.395Z,8.25
2019-01-20T11:26:00.530Z,6.97
2019-01-20T11:28:26.671Z,7.75
2019-01-20T11:30:52.911Z,8.03
2019-01-20T11:33:19.435Z,7.83
2019-01-20T11:35:45.580Z,8.03
2019-01-20T11:38:11.697Z,7.83
2019-01-20T11:40:37.823Z,7.85
2019-01-20T11:43:03.919Z,8.00
2019-01-20T11:45:30.401Z,7.62
2019-01-20T11:47:56.513Z,7.85
2019-01-20T11:50:22.708Z,7.55
2019-01-20T11:52:48.851Z,8.83
2019-01-20T11:55:17.994Z,8.25
2019-01-20T11:57:44.240Z,8.23
2019-01-20T12:00:22.155Z,7.25
2019-01-20T12:02:48.344Z,7.62
2019-01-20T12:05:15.852Z,8.03
2019-01-20T12:07:41.998Z,7.67
2019-01-20T12:10:09.525Z,8.35
2019-01-20T12:12:36.571Z,7.67
2019-01-20T12:15:06.175Z,8.13
2019-01-20T12:17:32.302Z,7.62
2019-01-20T12:19:58.411Z,8.10
2019-01-20T12:22:24.552Z,8.10
2019-01-20T12:24:50.768Z,8.13
2019-01-20T12:27:16.927Z,7.78
2019-01-20T12:29:43.163Z,7.60
2019-01-20T12:32:09.521Z,7.67
2019-01-20T12:34:35.666Z,7.70
2019-01-20T12:37:01.819Z,7.87
2019-01-20T12:39:28.047Z,8.35
2019-01-20T12:41:54.168Z,8.20
2019-01-20T12:44:20.534Z,8.25
2019-01-20T12:46:46.639Z,8.83
2019-01-20T12:49:12.782Z,7.67
2019-01-20T12:51:38.896Z,8.28
2019-01-20T12:54:05.046Z,7.78
2019-01-20T12:56:31.157Z,7.62
2019-01-20T12:58:57.277Z,8.13
2019-01-20T13:01:23.405Z,7.80
2019-01-20T13:03:49.561Z,7.78
2019-01-20T13:06:15.672Z,8.43
2019-01-20T13:08:41.799Z,8.15
2019-01-20T13:11:07.899Z,7.87
2019-01-20T13:13:34.048Z,8.35
2019-01-20T13:16:00.146Z,8.18
2019-01-20T13:18:26.297Z,9.20
2019-01-20T13:20:52.409Z,7.80
2019-01-20T13:23:18.553Z,7.15
2019-01-20T13:25:44.835Z,7.67
2019-01-20T13:28:11.059Z,7.67
2019-01-20T13:30:37.254Z,8.33
2019-01-20T13:33:03.449Z,8.53
2019-01-20T13:35:29.619Z,7.33
2019-01-20T13:38:07.839Z,7.67
2019-01-20T13:40:43.749Z,7.65
2019-01-20T13:43:10.212Z,7.30
2019-01-20T13:45:36.372Z,7.28
2019-01-20T13:48:02.711Z,7.78
2019-01-20T13:50:28.859Z,8.23
2019-01-20T13:52:55.041Z,8.03
2019-01-20T13:55:21.311Z,9.55
2019-01-20T13:57:47.644Z,8.13
2019-01-20T14:00:17.751Z,7.25
2019-01-20T14:02:44.069Z,7.53
2019-01-20T14:05:10.261Z,8.55
2019-01-20T14:07:36.485Z,8.55
2019-01-20T14:10:06.439Z,7.22
2019-01-20T14:12:32.584Z,8.05
2019-01-20T14:14:58.675Z,7.47
2019-01-20T14:17:24.865Z,8.13
2019-01-20T14:19:51.035Z,7.78
2019-01-20T14:22:17.318Z,8.78
2019-01-20T14:24:43.448Z,8.40
2019-01-20T14:27:09.613Z,7.55
2019-01-20T14:29:35.725Z,8.00
2019-01-20T14:32:01.897Z,8.18
2019-01-20T14:34:28.006Z,7.70
2019-01-20T14:36:54.177Z,8.35
2019-01-20T14:39:20.279Z,8.03
2019-01-20T14:41:46.428Z,9.13
2019-01-20T14:44:12.565Z,8.23
2019-01-20T14:46:38.791Z,8.15
2019-01-20T14:49:04.896Z,8.05
2019-01-20T14:51:31.200Z,7.95
2019-01-20T14:53:57.333Z,7.72
2019-01-20T14:56:23.448Z,7.95
2019-01-20T14:58:49.635Z,8.10
2019-01-20T15:01:15.765Z,9.05
2019-01-20T15:03:41.979Z,7.92
2019-01-20T15:06:08.160Z,7.67
2019-01-20T15:08:34.292Z,7.87
2019-01-20T15:11:00.409Z,7.92
2019-01-20T15:13:26.536Z,8.45
2019-01-20T15:15:52.676Z,8.55
2019-01-20T15:18:18.816Z,8.15
2019-01-20T15:20:44.947Z,8.73
2019-01-20T15:23:11.081Z,9.80
2019-01-20T15:25:37.208Z,8.53
2019-01-20T15:28:03.508Z,9.03
2019-01-20T15:30:31.941Z,7.60
2019-01-20T15:32:59.651Z,8.17
2019-01-20T15:35:25.908Z,8.70
2019-01-20T15:37:52.120Z,8.10
2019-01-20T15:40:20.585Z,8.80
2019-01-20T15:42:46.678Z,8.57
2019-01-20T15:45:16.774Z,8.30
2019-01-20T15:47:43.250Z,8.43
2019-01-20T15:50:19.259Z,8.63
2019-01-20T15:52:45.414Z,8.60
2019-01-20T15:55:11.573Z,8.77
2019-01-20T15:57:37.698Z,8.80
2019-01-20T16:00:08.009Z,8.37
2019-01-20T16:02:34.219Z,8.57
2019-01-20T16:05:00.328Z,8.90
2019-01-20T16:07:26.702Z,9.47
2019-01-20T16:09:52.904Z,10.55
2019-01-20T16:12:19.023Z,8.93
2019-01-20T16:14:45.140Z,9.07
2019-01-20T16:17:11.382Z,9.40
2019-01-20T16:19:37.503Z,10.33
2019-01-20T16:22:04.002Z,10.33
2019-01-20T16:24:30.119Z,10.20
2019-01-20T16:27:00.907Z,9.73
2019-01-20T16:29:24.287Z,9.93
2019-01-20T16:31:50.460Z,10.30
2019-01-20T16:34:16.584Z,10.50
2019-01-20T16:36:42.738Z,9.93
2019-01-20T16:39:08.882Z,9.47
2019-01-20T16:41:35.447Z,9.43
2019-01-20T16:44:01.552Z,9.00
2019-01-20T16:46:28.300Z,9.73
2019-01-20T16:48:54.442Z,9.20
2019-01-20T16:51:20.770Z,9.60
2019-01-20T16:53:46.929Z,9.03
2019-01-20T16:56:13.167Z,9.97
2019-01-20T16:58:39.315Z,9.10
2019-01-20T17:01:05.658Z,8.83
2019-01-20T17:03:33.952Z,9.30
2019-01-20T17:06:00.069Z,10.30
2019-01-20T17:08:26.204Z,10.27
2019-01-20T17:10:52.330Z,8.83
2019-01-20T17:13:18.603Z,9.57
2019-01-20T17:15:44.718Z,9.47
2019-01-20T17:18:11.930Z,9.13
2019-01-20T17:20:38.123Z,9.27
2019-01-20T17:23:04.420Z,8.43
2019-01-20T17:25:30.548Z,9.57
2019-01-20T17:27:56.843Z,10.43
2019-01-20T17:30:32.599Z,9.87
2019-01-20T17:32:59.014Z,9.40
2019-01-20T17:35:25.151Z,10.07
2019-01-20T17:37:51.267Z,9.33
2019-01-20T17:40:20.253Z,10.20
2019-01-20T17:42:46.375Z,10.13
2019-01-20T17:45:16.455Z,15.63
2019-01-20T17:47:42.616Z,11.97
2019-01-20T17:50:20.354Z,15.13
2019-01-20T17:52:46.488Z,14.20
2019-01-20T17:55:12.857Z,14.00
2019-01-20T17:57:39.008Z,11.20
2019-01-20T18:00:09.139Z,11.10
2019-01-20T18:02:35.428Z,10.10
2019-01-20T18:05:02.174Z,11.30
2019-01-20T18:07:28.272Z,11.20
2019-01-20T18:09:55.214Z,10.37
2019-01-20T18:12:21.353Z,11.60
2019-01-20T18:14:47.553Z,12.03
2019-01-20T18:17:13.691Z,11.50
2019-01-20T18:19:39.817Z,11.37
2019-01-20T18:22:06.153Z,10.40
2019-01-20T18:24:32.278Z,10.27
2019-01-20T18:26:58.781Z,10.37
2019-01-20T18:29:24.912Z,11.57
2019-01-20T18:31:51.239Z,11.53
2019-01-20T18:34:17.464Z,13.23
2019-01-20T18:36:43.686Z,11.80
2019-01-20T18:39:09.800Z,12.73
2019-01-20T18:41:36.159Z,12.20
2019-01-20T18:44:02.411Z,12.67
2019-01-20T18:46:28.956Z,12.17
2019-01-20T18:48:55.134Z,12.27
2019-01-20T18:51:21.317Z,12.97
2019-01-20T18:53:47.869Z,13.00
2019-01-20T18:56:17.210Z,12.00
2019-01-20T18:58:43.339Z,11.23
2019-01-20T19:01:13.702Z,11.20
2019-01-20T19:03:39.867Z,11.10
2019-01-20T19:06:06.096Z,9.40
2019-01-20T19:08:32.345Z,9.47
2019-01-20T19:10:58.557Z,9.57
2019-01-20T19:13:25.121Z,9.10
2019-01-20T19:15:51.360Z,9.80
2019-01-20T19:18:19.161Z,10.10
2019-01-20T19:20:45.623Z,11.00
2019-01-20T19:23:11.787Z,9.77
2019-01-20T19:25:37.894Z,10.20
2019-01-20T19:28:04.310Z,9.90
2019-01-20T19:30:33.571Z,10.50
2019-01-20T19:32:59.995Z,9.70
2019-01-20T19:35:26.121Z,10.67
2019-01-20T19:37:54.255Z,10.77
2019-01-20T19:40:20.473Z,10.17
2019-01-20T19:42:47.234Z,10.73
2019-01-20T19:45:20.090Z,10.27
2019-01-20T19:47:46.753Z,10.20
2019-01-20T19:50:14.886Z,10.07
2019-01-20T19:52:41.010Z,10.20
2019-01-20T19:55:10.647Z,10.87
2019-01-20T19:57:36.743Z,10.73
2019-01-20T20:00:07.676Z,12.07
2019-01-20T20:02:34.380Z,13.07
2019-01-20T20:05:01.086Z,12.60
2019-01-20T20:07:27.197Z,11.10
2019-01-20T20:09:53.372Z,10.87
2019-01-20T20:12:19.533Z,10.30
2019-01-20T20:14:45.707Z,11.13
2019-01-20T20:17:11.849Z,11.97
2019-01-20T20:19:38.094Z,11.03
2019-01-20T20:22:04.206Z,10.60
2019-01-20T20:24:30.512Z,11.13
2019-01-20T20:26:56.680Z,11.07
2019-01-20T20:29:22.889Z,11.07
2019-01-20T20:31:49.257Z,10.40
2019-01-20T20:34:15.570Z,9.67
2019-01-20T20:36:42.232Z,9.90
2019-01-20T20:39:08.349Z,11.23
2019-01-20T20:41:34.480Z,11.17
2019-01-20T20:44:00.700Z,8.93
2019-01-20T20:46:30.669Z,9.17
2019-01-20T20:48:54.896Z,10.27
2019-01-20T20:51:21.544Z,10.63
2019-01-20T20:53:49.586Z,10.50
2019-01-20T20:56:16.039Z,9.73
2019-01-20T20:58:42.194Z,9.20
2019-01-20T21:01:08.554Z,9.87
2019-01-20T21:03:34.762Z,10.20
2019-01-20T21:06:01.572Z,9.50
2019-01-20T21:08:27.786Z,9.03
2019-01-20T21:10:54.037Z,7.80
2019-01-20T21:13:20.365Z,9.17
2019-01-20T21:15:46.492Z,8.97
2019-01-20T21:18:12.668Z,10.73
2019-01-20T21:20:38.793Z,10.50
2019-01-20T21:23:11.795Z,11.07
2019-01-20T21:25:33.341Z,9.90
2019-01-20T21:27:59.660Z,11.10
2019-01-20T21:30:27.548Z,11.17
2019-01-20T21:32:53.650Z,9.90
2019-01-20T21:35:19.851Z,9.97
2019-01-20T21:37:45.997Z,8.53
2019-01-20T21:40:14.608Z,10.07
2019-01-20T21:42:40.847Z,10.37
2019-01-20T21:45:09.286Z,10.37
2019-01-20T21:47:35.378Z,9.60
2019-01-20T21:50:01.627Z,9.50
2019-01-20T21:52:27.744Z,10.60
2019-01-20T21:54:53.923Z,9.90
2019-01-20T21:57:20.036Z,9.13
2019-01-20T21:59:46.165Z,9.07
2019-01-20T22:02:12.281Z,8.70
2019-01-20T22:04:38.432Z,8.27
2019-01-20T22:07:04.567Z,8.77
2019-01-20T22:09:30.712Z,8.47
2019-01-20T22:11:56.837Z,8.37
2019-01-20T22:14:23.067Z,7.63
2019-01-20T22:16:52.901Z,8.60
2019-01-20T22:19:17.225Z,8.23
2019-01-20T22:21:43.327Z,6.50
2019-01-20T22:24:09.469Z,7.37
2019-01-20T22:26:35.567Z,7.80
2019-01-20T22:29:01.671Z,8.23
2019-01-20T22:31:27.824Z,8.53
2019-01-20T22:33:54.049Z,7.70
2019-01-20T22:36:20.162Z,9.20
2019-01-20T22:38:46.378Z,7.90
2019-01-20T22:41:12.564Z,7.87
2019-01-20T22:43:38.753Z,8.87
2019-01-20T22:46:04.909Z,6.80
2019-01-20T22:48:31.010Z,6.93
2019-01-20T22:50:57.148Z,6.50
2019-01-20T22:53:23.274Z,7.47
2019-01-20T22:55:49.422Z,7.97
2019-01-20T22:58:15.536Z,6.57
2019-01-20T23:00:46.591Z,7.40
2019-01-20T23:03:12.931Z,7.17
2019-01-20T23:05:39.072Z,6.83
2019-01-20T23:08:05.173Z,7.47
2019-01-20T23:10:31.704Z,7.20
2019-01-20T23:12:57.884Z,6.97
2019-01-20T23:15:24.140Z,7.50
2019-01-20T23:17:50.292Z,6.63
2019-01-20T23:20:16.868Z,6.83
2019-01-20T23:22:43.014Z,6.67
2019-01-20T23:25:09.111Z,6.77
2019-01-20T23:27:35.318Z,6.67
2019-01-20T23:30:01.665Z,7.03
2019-01-20T23:32:27.798Z,7.80
2019-01-20T23:34:53.935Z,5.83
2019-01-20T23:37:20.083Z,6.47
2019-01-20T23:39:46.295Z,5.37
2019-01-20T23:42:12.466Z,5.90
2019-01-20T23:44:38.561Z,5.00
2019-01-20T23:47:04.681Z,6.20
2019-01-20T23:49:30.772Z,6.47
2019-01-20T23:51:56.996Z,6.27
2019-01-20T23:54:23.292Z,6.07
2019-01-20T23:56:49.392Z,5.90
2019-01-20T23:59:15.511Z,5.90
